Time;durP1;ratioP1;P1;durP2;ratioP2;P2;SDS_P1;SDS_P2;PMS_P1;PMS_P2;Temp;Humidity;BMP_temperature;BMP_pressure;BME280_temperature;BME280_humidity;BME280_pressure;Samples;Min_cycle;Max_cycle;Signal;HPM_P1;HPM_P2
2022/03/31 00:00:17;;;;;;;;;17.00;12.50;;;;;;;;5079303;27;51111;-59
2022/03/31 00:03:08;;;;;;;;;10.75;5.00;;;;;;;;5080238;27;51205;-61
2022/03/31 00:05:52;;;;;;;;;15.00;10.00;;;;;;;;5078326;27;51452;-61
2022/03/31 00:08:43;;;;;;;;;17.75;9.75;;;;;;;;5079653;27;51195;-59
2022/03/31 00:11:27;;;;;;;;;10.50;9.25;;;;;;;;5079216;27;51561;-60
2022/03/31 00:14:18;;;;;;;;;19.25;10.50;;;;;;;;5079644;27;51080;-58
2022/03/31 00:17:04;;;;;;;;;16.00;10.00;;;;;;;;5079214;27;51122;-60
2022/03/31 00:19:52;;;;;;;;;11.50;8.25;;;;;;;;5079913;27;51150;-58
2022/03/31 00:22:39;;;;;;;;;15.25;12.00;;;;;;;;5080159;27;51465;-61
2022/03/31 00:25:33;;;;;;;;;14.50;10.25;;;;;;;;5079758;27;51148;-58
2022/03/31 00:28:39;;;;;;;;;14.00;12.00;;;;;;;;5079951;27;50966;-61
2022/03/31 00:31:26;;;;;;;;;19.00;10.75;;;;;;;;5078671;27;51422;-60
2022/03/31 00:34:12;;;;;;;;;15.25;12.25;;;;;;;;5079556;27;51383;-60
2022/03/31 00:37:04;;;;;;;;;15.75;12.00;;;;;;;;5079367;27;51529;-58
2022/03/31 00:39:59;;;;;;;;;13.75;10.25;;;;;;;;5077356;27;50977;-59
2022/03/31 00:42:51;;;;;;;;;17.25;11.50;;;;;;;;5077361;27;51437;-58
2022/03/31 00:45:47;;;;;;;;;18.25;11.50;;;;;;;;5078883;27;51128;-61
2022/03/31 00:48:52;;;;;;;;;15.00;9.25;;;;;;;;5076996;27;51600;-63
2022/03/31 00:51:38;;;;;;;;;12.25;11.75;;;;;;;;5077654;27;51387;-59
2022/03/31 00:54:25;;;;;;;;;14.50;10.25;;;;;;;;5079519;27;51161;-62
2022/03/31 00:57:19;;;;;;;;;12.75;9.25;;;;;;;;5078871;27;51370;-61
2022/03/31 01:00:08;;;;;;;;;13.25;10.50;;;;;;;;5079253;27;51179;-60
2022/03/31 01:02:55;;;;;;;;;12.50;10.25;;;;;;;;5079473;27;51302;-59
2022/03/31 01:05:42;;;;;;;;;14.00;11.50;;;;;;;;5078811;27;51024;-60
2022/03/31 01:08:26;;;;;;;;;12.25;9.00;;;;;;;;5078444;27;51370;-58
2022/03/31 01:11:12;;;;;;;;;13.00;11.25;;;;;;;;5076329;27;52379;-63
2022/03/31 01:13:58;;;;;;;;;11.75;9.25;;;;;;;;5078015;27;50991;-59
2022/03/31 01:16:46;;;;;;;;;13.75;10.00;;;;;;;;5076489;27;51180;-59
2022/03/31 01:19:40;;;;;;;;;16.25;11.50;;;;;;;;5078571;27;51128;-59
2022/03/31 01:22:30;;;;;;;;;14.50;12.75;;;;;;;;5073104;27;51473;-59
2022/03/31 01:25:16;;;;;;;;;16.25;11.25;;;;;;;;5077733;28;51179;-61
2022/03/31 01:28:02;;;;;;;;;10.75;10.50;;;;;;;;5078810;28;51171;-59
2022/03/31 01:30:47;;;;;;;;;18.00;10.00;;;;;;;;5078431;27;51247;-61
2022/03/31 01:33:35;;;;;;;;;18.00;11.00;;;;;;;;5078751;28;51097;-61
2022/03/31 01:36:23;;;;;;;;;15.75;9.75;;;;;;;;5072698;27;51114;-59
2022/03/31 01:39:28;;;;;;;;;13.50;10.75;;;;;;;;5078865;28;51437;-58
2022/03/31 01:42:15;;;;;;;;;12.00;9.75;;;;;;;;5074798;28;51105;-61
2022/03/31 01:45:05;;;;;;;;;13.25;11.75;;;;;;;;5075734;27;51074;-60
2022/03/31 01:48:11;;;;;;;;;11.50;9.25;;;;;;;;5074951;27;51440;-58
2022/03/31 01:50:55;;;;;;;;;17.25;10.75;;;;;;;;5078010;27;51151;-61
2022/03/31 01:53:40;;;;;;;;;17.00;11.00;;;;;;;;5071621;27;51263;-61
2022/03/31 01:56:28;;;;;;;;;14.25;10.75;;;;;;;;5076633;28;51030;-61
2022/03/31 01:59:37;;;;;;;;;10.50;7.00;;;;;;;;5078042;27;51439;-58
2022/03/31 02:02:23;;;;;;;;;18.75;11.00;;;;;;;;5077670;27;51252;-60
2022/03/31 02:05:45;;;;;;;;;12.75;8.75;;;;;;;;5078306;28;51149;-60
2022/03/31 02:08:32;;;;;;;;;15.00;10.25;;;;;;;;5078226;27;51086;-58
2022/03/31 02:11:18;;;;;;;;;11.50;10.25;;;;;;;;5077681;27;51023;-58
2022/03/31 02:14:04;;;;;;;;;16.50;10.00;;;;;;;;5078773;28;51752;-58
2022/03/31 02:16:49;;;;;;;;;16.25;10.25;;;;;;;;5077748;27;51260;-61
2022/03/31 02:19:35;;;;;;;;;14.75;11.00;;;;;;;;5078660;28;51363;-60
2022/03/31 02:22:22;;;;;;;;;17.50;11.50;;;;;;;;5078634;28;51146;-59
2022/03/31 02:25:08;;;;;;;;;16.25;12.25;;;;;;;;5078548;28;51532;-59
2022/03/31 02:27:56;;;;;;;;;16.50;9.50;;;;;;;;5077639;28;51128;-60
2022/03/31 02:30:49;;;;;;;;;13.25;11.50;;;;;;;;5082048;27;51418;-59
2022/03/31 02:33:38;;;;;;;;;17.00;13.00;;;;;;;;5080559;27;51233;-58
2022/03/31 02:36:23;;;;;;;;;12.50;9.50;;;;;;;;5078823;27;52451;-60
2022/03/31 02:39:11;;;;;;;;;14.75;9.75;;;;;;;;5081950;27;51089;-59
2022/03/31 02:41:57;;;;;;;;;13.50;11.00;;;;;;;;5082004;27;51246;-61
2022/03/31 02:44:44;;;;;;;;;13.25;9.50;;;;;;;;5079599;27;51150;-62
2022/03/31 02:47:29;;;;;;;;;15.50;9.75;;;;;;;;5080905;27;51228;-60
2022/03/31 02:50:15;;;;;;;;;16.50;12.00;;;;;;;;5081185;27;51075;-60
2022/03/31 02:56:08;;;;;;;;;15.25;10.75;;;;;;;;5078898;27;51197;-61
2022/03/31 02:58:52;;;;;;;;;19.25;11.00;;;;;;;;5079736;27;51235;-61
2022/03/31 03:01:48;;;;;;;;;19.00;11.00;;;;;;;;5081145;27;51188;-61
2022/03/31 03:04:34;;;;;;;;;16.00;11.50;;;;;;;;5080882;27;51045;-60
2022/03/31 03:07:18;;;;;;;;;13.75;11.25;;;;;;;;5081643;27;51074;-59
2022/03/31 03:10:04;;;;;;;;;12.75;10.00;;;;;;;;5080731;27;51145;-60
2022/03/31 03:12:59;;;;;;;;;13.50;9.50;;;;;;;;5079771;27;51031;-59
2022/03/31 03:15:57;;;;;;;;;11.25;10.25;;;;;;;;5081301;27;51168;-59
2022/03/31 03:18:41;;;;;;;;;15.50;10.00;;;;;;;;5081330;27;51245;-61
2022/03/31 03:21:26;;;;;;;;;12.75;10.25;;;;;;;;5081363;27;51472;-60
2022/03/31 03:24:12;;;;;;;;;13.00;12.50;;;;;;;;5080701;27;51090;-60
2022/03/31 03:27:16;;;;;;;;;15.00;13.75;;;;;;;;5081417;27;50972;-59
2022/03/31 03:30:01;;;;;;;;;25.00;13.25;;;;;;;;5078012;27;51096;-58
2022/03/31 03:32:46;;;;;;;;;12.75;10.75;;;;;;;;5080811;27;51100;-60
2022/03/31 03:35:32;;;;;;;;;13.25;12.00;;;;;;;;5080161;27;51244;-59
2022/03/31 03:38:31;;;;;;;;;14.00;11.50;;;;;;;;5081298;27;51164;-61
2022/03/31 03:41:24;;;;;;;;;15.00;11.00;;;;;;;;5079515;27;51514;-60
2022/03/31 03:44:13;;;;;;;;;18.25;13.00;;;;;;;;5079560;27;51164;-62
2022/03/31 03:46:59;;;;;;;;;16.50;12.25;;;;;;;;5079536;27;51097;-60
2022/03/31 03:49:47;;;;;;;;;18.00;10.75;;;;;;;;5079574;27;51164;-58
2022/03/31 03:52:33;;;;;;;;;13.50;10.75;;;;;;;;5080708;27;51473;-61
2022/03/31 03:55:18;;;;;;;;;13.75;11.00;;;;;;;;5079901;27;51633;-60
2022/03/31 03:58:04;;;;;;;;;22.50;15.25;;;;;;;;5080262;27;51149;-61
2022/03/31 04:01:15;;;;;;;;;15.50;10.50;;;;;;;;5080302;27;51217;-59
2022/03/31 04:04:08;;;;;;;;;14.00;11.75;;;;;;;;5077095;27;51166;-59
2022/03/31 04:06:52;;;;;;;;;19.50;13.75;;;;;;;;5079827;27;51460;-60
2022/03/31 04:09:38;;;;;;;;;15.00;10.00;;;;;;;;5080059;27;51088;-61
2022/03/31 04:12:45;;;;;;;;;13.50;11.50;;;;;;;;5078492;27;51099;-59
2022/03/31 04:15:29;;;;;;;;;16.25;11.25;;;;;;;;5077514;27;51183;-60
2022/03/31 04:18:14;;;;;;;;;15.25;11.00;;;;;;;;5079247;27;51153;-61
2022/03/31 04:21:04;;;;;;;;;15.75;11.00;;;;;;;;5078947;27;51596;-63
2022/03/31 04:23:49;;;;;;;;;15.50;11.25;;;;;;;;5078401;27;51113;-63
2022/03/31 04:26:44;;;;;;;;;16.50;10.50;;;;;;;;5079756;27;51106;-60
2022/03/31 04:29:28;;;;;;;;;14.25;12.25;;;;;;;;5080032;27;51309;-62
2022/03/31 04:32:15;;;;;;;;;17.50;13.50;;;;;;;;5072215;27;51545;-60
2022/03/31 04:35:02;;;;;;;;;16.50;12.50;;;;;;;;5077910;27;51194;-72
2022/03/31 04:37:48;;;;;;;;;13.75;11.00;;;;;;;;5077288;27;51074;-59
2022/03/31 04:40:36;;;;;;;;;17.75;13.50;;;;;;;;5078952;27;51061;-64
2022/03/31 04:43:22;;;;;;;;;17.00;12.50;;;;;;;;5082818;27;51118;-61
2022/03/31 04:46:08;;;;;;;;;13.75;12.25;;;;;;;;5079060;27;51482;-61
2022/03/31 04:49:13;;;;;;;;;16.00;12.25;;;;;;;;5079620;27;51046;-60
2022/03/31 04:52:01;;;;;;;;;15.00;13.00;;;;;;;;5078932;27;51208;-60
2022/03/31 04:54:45;;;;;;;;;18.25;13.25;;;;;;;;5080081;27;51030;-61
2022/03/31 04:57:29;;;;;;;;;13.00;11.00;;;;;;;;5079162;27;51061;-60
2022/03/31 05:00:14;;;;;;;;;16.50;11.50;;;;;;;;5079164;27;51183;-60
2022/03/31 05:02:59;;;;;;;;;17.00;12.00;;;;;;;;5079023;27;51548;-60
2022/03/31 05:05:44;;;;;;;;;18.50;13.25;;;;;;;;5078670;27;51187;-61
2022/03/31 05:08:30;;;;;;;;;16.50;12.00;;;;;;;;5079280;27;51065;-60
2022/03/31 05:11:14;;;;;;;;;13.00;11.00;;;;;;;;5076831;27;51069;-60
2022/03/31 05:14:02;;;;;;;;;19.50;11.75;;;;;;;;5075769;27;51110;-61
2022/03/31 05:16:48;;;;;;;;;21.00;17.00;;;;;;;;5078214;27;51279;-61
2022/03/31 05:19:34;;;;;;;;;17.75;12.75;;;;;;;;5079523;28;51153;-59
2022/03/31 05:22:33;;;;;;;;;35.75;16.50;;;;;;;;5071072;28;51476;-60
2022/03/31 05:25:24;;;;;;;;;17.75;11.00;;;;;;;;5078966;28;51192;-59
2022/03/31 05:28:12;;;;;;;;;20.25;14.75;;;;;;;;5079097;28;51086;-54
2022/03/31 05:30:57;;;;;;;;;22.25;14.00;;;;;;;;5079004;27;51506;-52
2022/03/31 05:33:52;;;;;;;;;18.00;12.00;;;;;;;;5078594;27;51168;-50
2022/03/31 05:36:36;;;;;;;;;19.25;13.25;;;;;;;;5079034;28;51392;-52
2022/03/31 05:39:24;;;;;;;;;15.25;13.25;;;;;;;;5078861;28;52261;-49
2022/03/31 05:42:09;;;;;;;;;14.00;11.50;;;;;;;;5078450;28;51148;-50
2022/03/31 05:45:03;;;;;;;;;19.25;10.50;;;;;;;;5078181;27;51117;-54
2022/03/31 05:47:49;;;;;;;;;26.00;20.50;;;;;;;;5077146;27;51160;-48
2022/03/31 05:50:33;;;;;;;;;20.50;15.75;;;;;;;;5078985;27;51169;-53
2022/03/31 05:53:30;;;;;;;;;20.75;14.75;;;;;;;;5078479;28;51136;-52
2022/03/31 05:56:18;;;;;;;;;18.25;14.75;;;;;;;;5079360;28;51264;-50
2022/03/31 05:59:09;;;;;;;;;19.00;15.50;;;;;;;;5079513;28;51059;-53
2022/03/31 06:02:04;;;;;;;;;21.50;14.25;;;;;;;;5078882;27;51447;-50
2022/03/31 06:04:48;;;;;;;;;18.50;12.50;;;;;;;;5081315;27;51097;-50
2022/03/31 06:07:54;;;;;;;;;16.00;14.00;;;;;;;;5082497;27;51219;-50
2022/03/31 06:10:39;;;;;;;;;22.25;17.50;;;;;;;;5082459;27;51102;-49
2022/03/31 06:13:26;;;;;;;;;30.50;16.00;;;;;;;;5082344;27;51176;-51
2022/03/31 06:16:12;;;;;;;;;26.75;20.75;;;;;;;;5082587;27;51143;-51
2022/03/31 06:19:23;;;;;;;;;26.25;18.25;;;;;;;;5082573;27;51601;-52
2022/03/31 06:22:27;;;;;;;;;13.00;12.50;;;;;;;;5080989;27;51125;-51
2022/03/31 06:25:14;;;;;;;;;23.00;15.50;;;;;;;;5082907;27;51208;-54
2022/03/31 06:27:58;;;;;;;;;16.50;14.00;;;;;;;;5082272;27;51033;-54
2022/03/31 06:30:43;;;;;;;;;18.25;13.50;;;;;;;;5081308;27;51453;-53
2022/03/31 06:33:29;;;;;;;;;17.25;12.75;;;;;;;;5082252;27;51223;-49
2022/03/31 06:36:13;;;;;;;;;16.00;13.50;;;;;;;;5082692;27;51170;-52
2022/03/31 06:38:57;;;;;;;;;11.75;11.25;;;;;;;;5082417;27;51493;-54
2022/03/31 06:41:50;;;;;;;;;16.00;12.50;;;;;;;;5081999;27;51180;-53
2022/03/31 06:44:35;;;;;;;;;15.00;10.25;;;;;;;;5081212;27;51164;-54
2022/03/31 06:47:20;;;;;;;;;15.25;10.00;;;;;;;;5080932;27;51175;-51
2022/03/31 06:50:05;;;;;;;;;17.50;11.75;;;;;;;;5081150;27;51144;-51
2022/03/31 06:52:50;;;;;;;;;23.75;13.50;;;;;;;;5078345;27;51488;-49
2022/03/31 06:55:34;;;;;;;;;13.25;11.25;;;;;;;;5080406;27;51131;-51
2022/03/31 06:58:21;;;;;;;;;16.00;10.25;;;;;;;;5081586;27;51139;-54
2022/03/31 07:01:06;;;;;;;;;15.75;11.50;;;;;;;;5081797;27;51291;-53
2022/03/31 07:03:52;;;;;;;;;15.00;10.50;;;;;;;;5080599;27;51102;-51
2022/03/31 07:06:37;;;;;;;;;12.50;9.25;;;;;;;;5081469;27;51191;-48
2022/03/31 07:09:51;;;;;;;;;18.00;15.00;;;;;;;;5081808;27;51216;-49
2022/03/31 07:12:40;;;;;;;;;14.75;12.25;;;;;;;;5081009;27;51054;-51
2022/03/31 07:15:27;;;;;;;;;23.50;14.00;;;;;;;;5081241;27;51212;-53
2022/03/31 07:18:11;;;;;;;;;15.75;12.75;;;;;;;;5081163;27;51486;-49
2022/03/31 07:21:06;;;;;;;;;18.75;12.75;;;;;;;;5081100;27;51176;-52
2022/03/31 07:23:55;;;;;;;;;14.25;11.50;;;;;;;;5081417;27;51144;-51
2022/03/31 07:26:42;;;;;;;;;15.00;12.00;;;;;;;;5080840;27;51178;-49
2022/03/31 07:29:37;;;;;;;;;19.25;12.25;;;;;;;;5094390;27;51505;-49
2022/03/31 07:32:22;;;;;;;;;15.25;12.50;;;;;;;;5081767;27;51139;-48
2022/03/31 07:35:08;;;;;;;;;12.75;10.50;;;;;;;;5081124;27;51199;-48
2022/03/31 07:37:54;;;;;;;;;19.75;10.75;;;;;;;;5080768;27;51122;-52
2022/03/31 07:40:50;;;;;;;;;14.00;10.50;;;;;;;;5081755;27;51130;-52
2022/03/31 07:43:36;;;;;;;;;13.25;9.25;;;;;;;;5080652;27;51481;-50
2022/03/31 07:46:21;;;;;;;;;14.00;10.50;;;;;;;;5081223;27;51215;-53
2022/03/31 07:49:06;;;;;;;;;10.50;8.75;;;;;;;;5080729;27;51080;-53
2022/03/31 07:51:52;;;;;;;;;14.25;10.00;;;;;;;;5081471;27;51272;-53
2022/03/31 07:54:58;;;;;;;;;12.00;8.25;;;;;;;;5079479;27;51177;-54
2022/03/31 07:57:44;;;;;;;;;12.00;9.75;;;;;;;;5079027;27;51234;-51
2022/03/31 08:00:41;;;;;;;;;12.50;10.75;;;;;;;;5079578;27;51522;-51
2022/03/31 08:03:55;;;;;;;;;14.50;10.50;;;;;;;;5080301;27;53727;-52
2022/03/31 08:06:50;;;;;;;;;14.00;11.00;;;;;;;;5079838;27;51116;-52
2022/03/31 08:09:41;;;;;;;;;14.25;10.50;;;;;;;;5079855;27;51094;-52
2022/03/31 08:12:36;;;;;;;;;14.50;11.00;;;;;;;;5079273;27;51490;-50
2022/03/31 08:15:25;;;;;;;;;14.00;11.50;;;;;;;;5080724;27;51149;-54
2022/03/31 08:18:25;;;;;;;;;14.75;11.25;;;;;;;;5080475;27;50948;-51
2022/03/31 08:21:11;;;;;;;;;15.25;13.25;;;;;;;;5079904;27;51110;-54
2022/03/31 08:23:59;;;;;;;;;13.75;12.00;;;;;;;;5080426;27;51164;-51
2022/03/31 08:26:45;;;;;;;;;13.00;10.50;;;;;;;;5078832;27;51236;-52
2022/03/31 08:29:30;;;;;;;;;14.50;10.75;;;;;;;;5079858;27;51132;-51
2022/03/31 08:32:15;;;;;;;;;15.25;10.25;;;;;;;;5080303;27;51043;-51
2022/03/31 08:35:07;;;;;;;;;16.00;11.50;;;;;;;;5079986;27;51165;-53
2022/03/31 08:37:54;;;;;;;;;6.25;5.75;;;;;;;;5078619;27;51279;-49
2022/03/31 08:40:40;;;;;;;;;13.50;10.25;;;;;;;;5078941;27;51014;-50
2022/03/31 08:43:29;;;;;;;;;16.00;11.75;;;;;;;;5080073;27;51159;-53
2022/03/31 08:46:14;;;;;;;;;20.00;11.75;;;;;;;;5069315;27;51585;-53
2022/03/31 08:49:03;;;;;;;;;14.75;9.75;;;;;;;;5064942;27;51169;-51
2022/03/31 08:51:49;;;;;;;;;14.25;9.50;;;;;;;;5067238;27;51400;-54
2022/03/31 08:54:55;;;;;;;;;14.00;9.75;;;;;;;;5075511;27;51530;-53
2022/03/31 08:57:40;;;;;;;;;16.75;16.00;;;;;;;;5078617;27;51118;-52
2022/03/31 09:00:26;;;;;;;;;12.75;9.25;;;;;;;;5078591;27;51432;-49
2022/03/31 09:03:13;;;;;;;;;17.00;10.75;;;;;;;;5067571;27;51022;-51
2022/03/31 09:05:59;;;;;;;;;19.25;11.00;;;;;;;;5069032;27;51162;-48
2022/03/31 09:08:52;;;;;;;;;14.50;10.50;;;;;;;;5068790;27;50982;-50
2022/03/31 09:11:37;;;;;;;;;16.75;12.50;;;;;;;;5068395;27;51503;-52
2022/03/31 09:14:51;;;;;;;;;16.00;11.00;;;;;;;;5066746;27;51164;-51
2022/03/31 09:17:36;;;;;;;;;15.25;11.75;;;;;;;;5066431;28;51121;-50
2022/03/31 09:20:21;;;;;;;;;14.75;12.50;;;;;;;;5078897;28;51126;-53
2022/03/31 09:23:06;;;;;;;;;15.75;13.00;;;;;;;;5079451;28;51168;-52
2022/03/31 09:26:16;;;;;;;;;19.00;12.00;;;;;;;;5068385;28;51564;-54
2022/03/31 09:29:15;;;;;;;;;18.00;13.50;;;;;;;;5076579;27;51420;-53
2022/03/31 09:32:30;;;;;;;;;17.75;12.50;;;;;;;;5079248;28;51095;-50
2022/03/31 09:35:20;;;;;;;;;16.00;9.75;;;;;;;;5079669;28;51102;-49
2022/03/31 09:38:23;;;;;;;;;23.00;14.50;;;;;;;;5079782;27;51145;-52
2022/03/31 09:41:30;;;;;;;;;13.75;9.25;;;;;;;;5083464;27;51031;-52
2022/03/31 09:44:23;;;;;;;;;15.00;10.25;;;;;;;;5083182;27;51535;-51
2022/03/31 09:47:11;;;;;;;;;11.00;9.50;;;;;;;;5082571;27;51180;-51
2022/03/31 09:49:57;;;;;;;;;20.50;11.75;;;;;;;;5083485;27;51113;-52
2022/03/31 09:53:03;;;;;;;;;20.50;13.50;;;;;;;;5082753;27;51026;-50
2022/03/31 09:55:48;;;;;;;;;15.00;12.75;;;;;;;;5083344;27;51494;-51
2022/03/31 09:58:37;;;;;;;;;13.75;9.00;;;;;;;;5082548;27;51132;-51
2022/03/31 10:01:23;;;;;;;;;10.75;5.50;;;;;;;;5083110;27;51128;-52
2022/03/31 10:04:08;;;;;;;;;13.25;8.25;;;;;;;;5082252;27;51072;-52
2022/03/31 10:07:05;;;;;;;;;11.75;9.00;;;;;;;;5082572;27;51190;-54
2022/03/31 10:09:51;;;;;;;;;9.00;7.50;;;;;;;;5082929;27;51058;-53
2022/03/31 10:13:08;;;;;;;;;15.00;11.00;;;;;;;;5082671;27;51147;-55
2022/03/31 10:15:59;;;;;;;;;12.00;10.00;;;;;;;;5081300;27;51037;-50
2022/03/31 10:18:52;;;;;;;;;12.75;8.75;;;;;;;;5082364;27;51195;-52
2022/03/31 10:21:37;;;;;;;;;13.25;10.25;;;;;;;;5082609;27;51100;-53
2022/03/31 10:24:48;;;;;;;;;18.25;8.50;;;;;;;;5081783;27;50999;-52
2022/03/31 10:27:46;;;;;;;;;11.00;7.75;;;;;;;;5082032;27;51439;-53
2022/03/31 10:30:54;;;;;;;;;13.75;9.75;;;;;;;;5080073;27;51142;-55
2022/03/31 10:33:59;;;;;;;;;15.75;9.75;;;;;;;;5082325;27;51062;-54
2022/03/31 10:37:06;;;;;;;;;13.50;8.50;;;;;;;;5080534;27;51394;-53
2022/03/31 10:39:56;;;;;;;;;11.25;8.25;;;;;;;;5078035;27;51107;-54
2022/03/31 10:42:41;;;;;;;;;14.00;11.50;;;;;;;;5076049;27;51086;-54
2022/03/31 10:45:39;;;;;;;;;11.25;8.00;;;;;;;;5078843;27;51055;-51
2022/03/31 10:48:28;;;;;;;;;15.50;10.00;;;;;;;;5076240;27;51869;-54
2022/03/31 10:51:19;;;;;;;;;9.75;8.75;;;;;;;;5081012;27;51104;-56
2022/03/31 10:54:24;;;;;;;;;9.25;5.00;;;;;;;;5082307;27;51149;-51
2022/03/31 10:57:17;;;;;;;;;14.00;9.50;;;;;;;;5078710;27;51508;-54
2022/03/31 11:00:02;;;;;;;;;11.50;9.50;;;;;;;;5081146;27;51051;-52
2022/03/31 11:02:52;;;;;;;;;10.25;6.75;;;;;;;;5082044;27;51462;-51
2022/03/31 11:05:50;;;;;;;;;14.50;9.00;;;;;;;;5081397;27;51219;-52
2022/03/31 11:08:42;;;;;;;;;12.00;9.75;;;;;;;;5082025;27;51486;-53
2022/03/31 11:11:55;;;;;;;;;12.50;10.00;;;;;;;;5078603;27;51219;-53
2022/03/31 11:14:57;;;;;;;;;11.75;11.25;;;;;;;;5076564;27;51221;-50
2022/03/31 11:17:47;;;;;;;;;14.75;8.75;;;;;;;;5070840;27;51177;-52
2022/03/31 11:20:33;;;;;;;;;15.75;9.25;;;;;;;;5081237;27;51156;-53
2022/03/31 11:23:21;;;;;;;;;10.50;6.50;;;;;;;;5079900;27;51466;-54
2022/03/31 11:26:07;;;;;;;;;9.25;7.75;;;;;;;;5079538;27;51138;-51
2022/03/31 11:28:53;;;;;;;;;14.50;11.00;;;;;;;;5078196;27;51187;-52
2022/03/31 11:31:48;;;;;;;;;11.00;5.50;;;;;;;;5070990;27;51133;-54
2022/03/31 11:34:35;;;;;;;;;13.25;10.00;;;;;;;;5078667;27;51085;-54
2022/03/31 11:37:21;;;;;;;;;18.00;10.50;;;;;;;;5081101;27;51303;-51
2022/03/31 11:40:23;;;;;;;;;13.75;10.25;;;;;;;;5081312;27;51147;-53
2022/03/31 11:43:15;;;;;;;;;17.75;10.75;;;;;;;;5080779;27;51148;-53
2022/03/31 11:46:01;;;;;;;;;16.00;9.75;;;;;;;;5071982;27;51160;-51
2022/03/31 11:48:49;;;;;;;;;14.00;10.25;;;;;;;;5071094;27;51125;-55
2022/03/31 11:51:36;;;;;;;;;15.75;12.25;;;;;;;;5079435;27;51202;-52
2022/03/31 11:54:22;;;;;;;;;13.75;10.50;;;;;;;;5075474;27;51436;-53
2022/03/31 11:57:07;;;;;;;;;20.25;12.50;;;;;;;;5072874;27;52093;-50
2022/03/31 11:59:53;;;;;;;;;17.25;12.75;;;;;;;;5069372;27;51073;-52
2022/03/31 12:02:41;;;;;;;;;14.25;10.50;;;;;;;;5069725;27;51141;-51
2022/03/31 12:05:25;;;;;;;;;17.75;13.00;;;;;;;;5070083;27;51710;-51
2022/03/31 12:08:10;;;;;;;;;9.00;8.00;;;;;;;;5069732;27;51168;-54
2022/03/31 12:10:55;;;;;;;;;16.75;11.00;;;;;;;;5067996;27;51224;-53
2022/03/31 12:14:06;;;;;;;;;17.00;12.50;;;;;;;;5066808;27;51248;-54
2022/03/31 12:16:52;;;;;;;;;16.00;10.00;;;;;;;;5070838;27;51212;-53
2022/03/31 12:19:41;;;;;;;;;17.00;12.25;;;;;;;;5068037;27;51125;-55
2022/03/31 12:22:35;;;;;;;;;13.75;11.50;;;;;;;;5065716;27;50999;-53
2022/03/31 12:25:45;;;;;;;;;15.00;12.00;;;;;;;;5063582;27;51211;-51
2022/03/31 12:28:49;;;;;;;;;18.75;11.25;;;;;;;;5075344;27;51090;-53
2022/03/31 12:31:35;;;;;;;;;11.75;9.00;;;;;;;;5079764;27;51140;-52
2022/03/31 12:34:19;;;;;;;;;17.50;11.00;;;;;;;;5071138;27;51228;-54
2022/03/31 12:37:06;;;;;;;;;15.75;10.00;;;;;;;;5064014;27;51260;-54
2022/03/31 12:39:51;;;;;;;;;11.50;8.25;;;;;;;;5072263;27;51565;-54
2022/03/31 12:42:36;;;;;;;;;8.00;5.00;;;;;;;;5064016;27;51127;-53
2022/03/31 12:45:22;;;;;;;;;14.00;8.75;;;;;;;;5064058;27;51209;-54
2022/03/31 12:48:11;;;;;;;;;15.00;9.00;;;;;;;;5071118;27;51130;-52
2022/03/31 12:51:11;;;;;;;;;8.25;6.75;;;;;;;;5071366;27;51101;-53
2022/03/31 12:53:58;;;;;;;;;13.50;9.50;;;;;;;;5080173;27;51042;-52
2022/03/31 12:56:46;;;;;;;;;7.00;5.50;;;;;;;;5079865;27;51171;-53
2022/03/31 12:59:33;;;;;;;;;13.25;10.00;;;;;;;;5078956;27;51243;-53
2022/03/31 13:02:18;;;;;;;;;13.00;9.25;;;;;;;;5077866;27;51315;-52
2022/03/31 13:05:04;;;;;;;;;9.00;6.25;;;;;;;;5079899;27;51432;-52
2022/03/31 13:07:53;;;;;;;;;12.50;8.75;;;;;;;;5079659;27;51063;-54
2022/03/31 13:11:06;;;;;;;;;6.25;6.25;;;;;;;;5079621;27;51368;-52
2022/03/31 13:13:54;;;;;;;;;10.75;8.75;;;;;;;;5079577;27;51070;-50
2022/03/31 13:16:43;;;;;;;;;9.00;7.75;;;;;;;;5079462;27;51100;-52
2022/03/31 13:19:28;;;;;;;;;8.25;6.25;;;;;;;;5079777;27;51001;-53
2022/03/31 13:22:16;;;;;;;;;8.75;5.75;;;;;;;;5079687;28;51276;-52
2022/03/31 13:25:01;;;;;;;;;14.00;7.75;;;;;;;;5079651;28;51088;-53
2022/03/31 13:27:46;;;;;;;;;12.25;8.75;;;;;;;;5077978;28;52257;-47
2022/03/31 13:30:32;;;;;;;;;14.25;9.00;;;;;;;;5078578;27;51392;-51
2022/03/31 13:33:20;;;;;;;;;7.50;6.00;;;;;;;;5078996;28;51140;-51
2022/03/31 13:36:08;;;;;;;;;13.25;9.00;;;;;;;;5079274;28;51102;-53
2022/03/31 13:38:53;;;;;;;;;16.00;10.00;;;;;;;;5076510;28;51148;-54
2022/03/31 13:41:39;;;;;;;;;12.00;8.50;;;;;;;;5078995;28;51040;-53
2022/03/31 13:44:25;;;;;;;;;10.00;8.75;;;;;;;;5079411;28;51112;-56
2022/03/31 13:47:10;;;;;;;;;9.00;8.50;;;;;;;;5078190;27;51128;-53
2022/03/31 13:49:55;;;;;;;;;11.25;7.75;;;;;;;;5079304;28;51161;-54
2022/03/31 13:53:43;;;;;;;;;12.25;7.00;;;;;;;;5079651;28;51181;-54
2022/03/31 13:56:03;;;;;;;;;10.25;8.75;;;;;;;;5078882;28;51227;-53
2022/03/31 14:02:01;;;;;;;;;11.00;5.25;;;;;;;;5075794;28;51535;-56
2022/03/31 14:04:51;;;;;;;;;14.50;6.50;;;;;;;;5074328;28;51105;-51
2022/03/31 14:07:37;;;;;;;;;14.75;9.00;;;;;;;;5067066;28;51398;-53
2022/03/31 14:10:21;;;;;;;;;9.75;6.75;;;;;;;;5067348;28;51245;-54
2022/03/31 14:13:10;;;;;;;;;14.00;9.00;;;;;;;;5076013;28;51429;-54
2022/03/31 14:15:54;;;;;;;;;10.75;6.25;;;;;;;;5078951;28;51137;-52
2022/03/31 14:18:41;;;;;;;;;12.25;7.00;;;;;;;;5078534;28;51147;-54
2022/03/31 14:21:25;;;;;;;;;1.50;0.00;;;;;;;;5078059;27;51559;-51
2022/03/31 14:24:12;;;;;;;;;9.00;7.25;;;;;;;;5076292;27;51168;-54
2022/03/31 14:27:01;;;;;;;;;12.50;8.25;;;;;;;;5080436;27;51399;-51
2022/03/31 14:29:45;;;;;;;;;13.75;8.00;;;;;;;;5081526;27;51147;-53
2022/03/31 14:32:49;;;;;;;;;10.50;8.75;;;;;;;;5082603;27;51545;-51
2022/03/31 14:35:41;;;;;;;;;10.00;7.75;;;;;;;;5081092;27;51234;-49
2022/03/31 14:38:41;;;;;;;;;9.50;8.50;;;;;;;;5076105;27;51453;-52
2022/03/31 14:41:27;;;;;;;;;21.50;12.00;;;;;;;;5082132;27;51154;-52
2022/03/31 14:44:13;;;;;;;;;13.75;8.75;;;;;;;;5082443;27;51129;-56
2022/03/31 14:47:00;;;;;;;;;13.25;9.75;;;;;;;;5081758;27;51385;-51
2022/03/31 14:49:50;;;;;;;;;16.50;8.00;;;;;;;;5081537;27;51114;-52
2022/03/31 14:52:39;;;;;;;;;11.75;8.50;;;;;;;;5080208;27;51131;-52
2022/03/31 14:55:25;;;;;;;;;9.00;8.75;;;;;;;;5081901;27;51161;-53
2022/03/31 14:58:11;;;;;;;;;12.75;8.00;;;;;;;;5081390;27;51449;-55
2022/03/31 15:00:55;;;;;;;;;14.75;8.25;;;;;;;;5076525;27;51225;-52
2022/03/31 15:03:39;;;;;;;;;11.50;8.25;;;;;;;;5081618;27;51253;-53
2022/03/31 15:06:27;;;;;;;;;10.25;9.25;;;;;;;;5081323;27;51103;-54
2022/03/31 15:14:30;;;;;;;;;11.75;10.25;;;;;;;;5081888;27;51362;-55
2022/03/31 15:15:18;;;;;;;;;17.75;11.50;;;;;;;;5080637;27;51184;-52
2022/03/31 15:18:03;;;;;;;;;7.50;6.50;;;;;;;;5078153;27;51247;-53
2022/03/31 15:20:47;;;;;;;;;14.50;10.00;;;;;;;;5081302;27;51289;-51
2022/03/31 15:23:34;;;;;;;;;8.50;8.00;;;;;;;;5081179;27;51150;-53
2022/03/31 15:26:18;;;;;;;;;10.75;8.25;;;;;;;;5081515;27;50987;-54
2022/03/31 15:29:05;;;;;;;;;10.75;8.50;;;;;;;;5080678;27;51462;-52
2022/03/31 15:31:49;;;;;;;;;13.00;8.50;;;;;;;;5081233;27;51090;-56
2022/03/31 15:34:34;;;;;;;;;9.50;8.75;;;;;;;;5081367;27;51173;-52
2022/03/31 15:37:18;;;;;;;;;14.00;8.00;;;;;;;;5080513;27;51010;-53
2022/03/31 15:40:03;;;;;;;;;13.25;9.50;;;;;;;;5081171;27;51136;-54
2022/03/31 15:42:47;;;;;;;;;11.50;9.75;;;;;;;;5081042;27;51104;-54
2022/03/31 15:45:31;;;;;;;;;10.25;9.25;;;;;;;;5081959;27;51078;-53
2022/03/31 15:48:16;;;;;;;;;14.25;9.75;;;;;;;;5081050;27;51575;-52
2022/03/31 15:51:00;;;;;;;;;14.75;10.50;;;;;;;;5081186;27;51337;-54
2022/03/31 15:53:45;;;;;;;;;13.75;10.75;;;;;;;;5081358;27;51437;-55
2022/03/31 15:56:29;;;;;;;;;12.00;8.75;;;;;;;;5081000;27;51086;-52
2022/03/31 15:59:14;;;;;;;;;17.25;11.50;;;;;;;;5081077;27;51111;-55
2022/03/31 16:01:58;;;;;;;;;11.00;8.00;;;;;;;;5079180;27;51168;-54
2022/03/31 16:04:42;;;;;;;;;10.25;8.75;;;;;;;;5081144;27;51094;-56
2022/03/31 16:07:27;;;;;;;;;9.50;6.75;;;;;;;;5080347;27;51135;-53
2022/03/31 16:10:12;;;;;;;;;14.75;10.50;;;;;;;;5080036;27;51024;-54
2022/03/31 16:12:56;;;;;;;;;13.00;9.75;;;;;;;;5078315;27;51572;-54
2022/03/31 16:15:40;;;;;;;;;11.50;9.25;;;;;;;;5079022;27;51172;-53
2022/03/31 16:18:26;;;;;;;;;11.00;8.25;;;;;;;;5079903;27;51207;-54
2022/03/31 16:21:11;;;;;;;;;12.25;9.25;;;;;;;;5079425;27;51187;-53
2022/03/31 16:23:59;;;;;;;;;17.50;11.00;;;;;;;;5081150;27;51168;-55
2022/03/31 16:26:43;;;;;;;;;15.00;9.00;;;;;;;;5080243;27;51599;-55
2022/03/31 16:29:28;;;;;;;;;13.00;7.50;;;;;;;;5080123;27;51068;-52
2022/03/31 16:32:12;;;;;;;;;12.50;8.00;;;;;;;;5080391;27;51171;-54
2022/03/31 16:34:56;;;;;;;;;13.50;9.50;;;;;;;;5080867;27;50963;-55
2022/03/31 16:37:41;;;;;;;;;14.00;11.00;;;;;;;;5080022;27;51115;-54
2022/03/31 16:40:25;;;;;;;;;14.25;9.75;;;;;;;;5080205;27;51113;-51
2022/03/31 16:43:09;;;;;;;;;10.75;9.00;;;;;;;;5080403;27;51122;-53